Time;durP1;ratioP1;P1;durP2;ratioP2;P2;SDS_P1;SDS_P2;PMS_P1;PMS_P2;Temp;Humidity;BMP_temperature;BMP_pressure;BME280_temperature;BME280_humidity;BME280_pressure;Samples;Min_cycle;Max_cycle;Signal;HPM_P1;HPM_P2
2021/06/18 00:01:40;;;;;;;11.40;10.40;;;27.80;62.50;;;;;;5039498;28;20641;-90
2021/06/18 00:04:06;;;;;;;10.98;10.27;;;27.70;62.80;;;;;;5004348;28;20224;-89
2021/06/18 00:06:32;;;;;;;11.93;10.95;;;27.70;62.90;;;;;;5034993;28;20204;-91
2021/06/18 00:08:58;;;;;;;10.73;9.95;;;27.60;63.20;;;;;;5010131;28;20181;-91
2021/06/18 00:11:23;;;;;;;11.23;10.43;;;27.60;63.10;;;;;;4985785;28;20189;-90
2021/06/18 00:13:49;;;;;;;10.55;9.77;;;27.60;63.00;;;;;;5002903;28;20189;-92
2021/06/18 00:16:15;;;;;;;11.13;10.23;;;27.70;63.00;;;;;;5035769;28;20688;-90
2021/06/18 00:18:42;;;;;;;12.85;11.85;;;27.70;62.70;;;;;;5036629;28;20188;-90
2021/06/18 00:21:08;;;;;;;12.27;11.23;;;27.80;62.80;;;;;;5037819;28;20173;-89
2021/06/18 00:23:33;;;;;;;10.93;9.95;;;27.70;62.60;;;;;;5017517;28;20637;-89
2021/06/18 00:25:59;;;;;;;11.55;10.65;;;27.50;63.20;;;;;;5035738;28;20201;-89
2021/06/18 00:28:25;;;;;;;12.77;11.82;;;27.10;65.20;;;;;;5035505;28;20424;-90
2021/06/18 00:30:50;;;;;;;12.48;11.18;;;26.70;66.00;;;;;;5035111;28;20204;-90
2021/06/18 00:33:16;;;;;;;11.82;10.88;;;26.60;66.30;;;;;;5035564;28;20191;-91
2021/06/18 00:35:42;;;;;;;12.23;11.27;;;26.60;66.20;;;;;;5001582;28;20240;-90
2021/06/18 00:38:08;;;;;;;12.48;11.57;;;26.80;65.60;;;;;;5035209;28;20177;-90
2021/06/18 00:40:34;;;;;;;12.43;11.43;;;26.80;64.90;;;;;;5035185;28;20181;-90
2021/06/18 00:43:00;;;;;;;14.10;13.00;;;26.20;67.60;;;;;;5018257;28;20181;-90
2021/06/18 00:45:25;;;;;;;13.95;12.75;;;26.00;70.10;;;;;;5036127;28;20220;-90
2021/06/18 00:47:56;;;;;;;14.57;13.48;;;25.80;70.40;;;;;;5042857;28;20242;-91
2021/06/18 00:50:23;;;;;;;13.05;12.05;;;26.00;70.20;;;;;;5017346;28;20184;-91
2021/06/18 00:52:49;;;;;;;13.57;12.20;;;26.20;69.10;;;;;;5020432;28;20183;-90
2021/06/18 00:55:15;;;;;;;14.20;12.77;;;26.40;68.10;;;;;;5032846;28;20620;-90
2021/06/18 00:57:41;;;;;;;13.80;12.65;;;26.60;67.10;;;;;;5035029;28;20215;-91
2021/06/18 01:00:11;;;;;;;13.02;12.02;;;26.60;66.60;;;;;;5035192;28;20653;-90
2021/06/18 01:02:38;;;;;;;12.73;11.80;;;26.50;67.00;;;;;;5035659;28;20169;-90
2021/06/18 01:05:09;;;;;;;12.30;11.13;;;26.40;67.10;;;;;;5017830;28;20216;-90
2021/06/18 01:07:52;;;;;;;12.40;11.48;;;26.50;66.50;;;;;;5036637;28;20233;-90
2021/06/18 01:10:24;;;;;;;12.30;11.27;;;26.60;61.90;;;;;;5034897;28;20169;-91
2021/06/18 01:12:58;;;;;;;12.32;11.43;;;26.20;63.00;;;;;;5035774;28;20206;-90
2021/06/18 01:15:44;;;;;;;11.70;10.65;;;25.90;62.90;;;;;;5015247;28;20212;-89
2021/06/18 01:18:15;;;;;;;13.38;12.27;;;25.70;64.30;;;;;;5015935;28;20165;-90
2021/06/18 01:21:03;;;;;;;14.10;12.65;;;25.40;66.50;;;;;;5014836;28;20170;-90
2021/06/18 01:23:29;;;;;;;12.15;11.13;;;25.00;68.80;;;;;;5015057;28;20588;-90
2021/06/18 01:26:20;;;;;;;12.98;12.00;;;25.10;67.90;;;;;;4997475;28;20300;-91
2021/06/18 01:28:53;;;;;;;14.55;13.15;;;25.00;68.60;;;;;;5015637;28;20221;-90
2021/06/18 01:31:22;;;;;;;14.90;13.52;;;24.90;70.00;;;;;;5013551;28;20200;-90
2021/06/18 01:33:52;;;;;;;14.05;13.05;;;24.80;70.50;;;;;;5016995;28;20199;-90
2021/06/18 01:36:21;;;;;;;15.60;14.40;;;24.90;71.40;;;;;;5034699;28;20189;-90
2021/06/18 01:38:49;;;;;;;16.70;15.20;;;24.80;71.80;;;;;;5035539;28;20169;-91
2021/06/18 01:41:19;;;;;;;17.05;15.68;;;24.70;72.40;;;;;;5033818;28;20228;-89
2021/06/18 01:43:48;;;;;;;16.73;15.52;;;24.70;72.80;;;;;;5034853;28;20248;-89
2021/06/18 01:46:17;;;;;;;16.63;15.27;;;24.70;72.70;;;;;;5035112;28;20213;-91
2021/06/18 01:48:46;;;;;;;18.42;16.83;;;24.70;72.90;;;;;;5015246;28;20285;-90
2021/06/18 01:51:14;;;;;;;17.52;15.90;;;24.70;72.70;;;;;;5000159;28;20185;-89
2021/06/18 01:53:43;;;;;;;17.75;16.40;;;24.70;72.90;;;;;;5035170;28;20736;-91
2021/06/18 01:56:14;;;;;;;18.02;16.48;;;24.60;73.10;;;;;;5017437;28;20216;-90
2021/06/18 01:58:42;;;;;;;18.75;17.23;;;24.40;73.70;;;;;;5042567;28;20161;-89
2021/06/18 02:01:08;;;;;;;18.95;17.42;;;24.30;74.60;;;;;;5046862;28;20173;-90
2021/06/18 02:03:36;;;;;;;18.80;17.05;;;24.40;74.60;;;;;;5044282;28;20177;-91
2021/06/18 02:06:04;;;;;;;18.25;16.55;;;24.40;74.30;;;;;;5029828;28;20208;-92
2021/06/18 02:08:30;;;;;;;17.77;16.25;;;24.40;74.50;;;;;;5033753;28;20255;-92
2021/06/18 02:10:57;;;;;;;17.58;16.13;;;24.40;74.20;;;;;;5035401;28;20196;-90
2021/06/18 02:13:26;;;;;;;16.98;15.68;;;24.40;74.50;;;;;;5052152;28;20185;-92
2021/06/18 02:15:53;;;;;;;17.25;15.82;;;24.40;74.10;;;;;;5035730;28;20239;-90
2021/06/18 02:18:23;;;;;;;17.80;16.40;;;24.60;73.50;;;;;;5051265;28;20275;-90
2021/06/18 02:20:52;;;;;;;16.80;15.60;;;24.70;73.20;;;;;;5051530;28;20173;-91
2021/06/18 02:23:21;;;;;;;17.52;16.17;;;24.70;73.00;;;;;;5034135;28;20180;-90
2021/06/18 02:25:47;;;;;;;16.52;15.30;;;24.80;72.40;;;;;;5036959;28;20209;-89
2021/06/18 02:28:14;;;;;;;17.52;16.13;;;24.70;72.60;;;;;;5054065;28;20182;-90
2021/06/18 02:30:39;;;;;;;16.85;15.43;;;24.60;72.90;;;;;;5054223;28;20191;-89
2021/06/18 02:33:12;;;;;;;18.33;15.18;;;24.60;72.70;;;;;;5047459;28;20194;-90
2021/06/18 02:35:40;;;;;;;17.35;15.73;;;24.60;72.80;;;;;;5026145;28;20219;-91
2021/06/18 02:38:09;;;;;;;15.85;14.43;;;24.60;72.30;;;;;;5035108;28;20188;-90
2021/06/18 02:40:35;;;;;;;14.98;13.88;;;24.60;71.50;;;;;;5034474;28;20173;-90
2021/06/18 02:43:01;;;;;;;15.38;13.98;;;24.80;70.70;;;;;;5034033;28;20181;-90
2021/06/18 02:45:27;;;;;;;16.00;14.75;;;24.90;70.40;;;;;;5033493;28;20220;-90
2021/06/18 02:47:59;;;;;;;16.05;14.85;;;25.00;70.20;;;;;;5020467;28;20181;-90
2021/06/18 02:50:46;;;;;;;15.38;14.15;;;25.10;69.50;;;;;;5038855;28;20220;-90
2021/06/18 02:53:27;;;;;;;14.77;13.52;;;25.20;68.50;;;;;;5036577;28;20184;-90
2021/06/18 02:56:05;;;;;;;16.08;14.93;;;25.20;68.50;;;;;;5018047;28;20217;-90
2021/06/18 02:58:51;;;;;;;14.90;13.55;;;25.00;68.60;;;;;;5016440;28;20173;-90
2021/06/18 03:01:21;;;;;;;13.98;12.95;;;25.10;68.50;;;;;;5018663;28;20168;-90
2021/06/18 03:03:52;;;;;;;15.40;14.02;;;25.30;68.40;;;;;;5027257;28;20170;-90
2021/06/18 03:06:19;;;;;;;14.85;13.75;;;25.40;67.60;;;;;;5017679;28;20197;-90
2021/06/18 03:08:49;;;;;;;14.52;13.52;;;25.40;67.00;;;;;;5032133;28;20197;-89
2021/06/18 03:11:15;;;;;;;15.57;14.07;;;25.50;66.50;;;;;;5035440;28;20212;-90
2021/06/18 03:13:45;;;;;;;14.63;13.52;;;25.60;66.40;;;;;;5036231;28;20196;-91
2021/06/18 03:16:12;;;;;;;14.02;12.82;;;25.60;66.60;;;;;;5035336;28;20228;-89
2021/06/18 03:18:42;;;;;;;13.98;12.77;;;25.60;66.20;;;;;;5035756;28;20173;-90
2021/06/18 03:21:11;;;;;;;16.00;14.50;;;25.50;67.20;;;;;;5035292;28;20184;-90
2021/06/18 03:23:38;;;;;;;13.65;12.55;;;25.40;67.40;;;;;;5035954;28;20169;-90
2021/06/18 03:26:05;;;;;;;14.27;13.25;;;25.50;67.10;;;;;;5036544;28;20262;-90
2021/06/18 03:28:32;;;;;;;14.77;13.32;;;25.60;66.80;;;;;;5036393;28;20178;-89
2021/06/18 03:31:01;;;;;;;13.68;12.65;;;25.60;64.70;;;;;;5036342;28;20177;-90
2021/06/18 03:33:28;;;;;;;14.57;13.45;;;25.60;65.20;;;;;;5035941;28;20211;-90
2021/06/18 03:35:54;;;;;;;12.25;11.15;;;25.70;64.30;;;;;;5038042;28;20286;-90
2021/06/18 03:38:21;;;;;;;11.00;10.20;;;25.40;61.60;;;;;;5019531;28;20183;-91
2021/06/18 03:40:47;;;;;;;11.40;10.40;;;25.30;62.00;;;;;;5037073;28;20181;-90
2021/06/18 03:43:14;;;;;;;10.77;9.98;;;25.20;60.90;;;;;;5035840;28;20185;-91
2021/06/18 03:45:45;;;;;;;9.80;8.93;;;25.20;60.20;;;;;;5036255;28;20426;-90
2021/06/18 03:48:14;;;;;;;9.10;8.32;;;25.10;60.60;;;;;;5036373;28;20242;-91
2021/06/18 03:50:40;;;;;;;8.52;7.82;;;24.90;59.60;;;;;;5018912;28;20199;-91
2021/06/18 03:53:09;;;;;;;9.20;8.40;;;24.90;59.70;;;;;;5012412;28;20204;-90
2021/06/18 03:55:38;;;;;;;8.85;8.00;;;24.80;58.70;;;;;;5029570;28;20204;-91
2021/06/18 03:58:05;;;;;;;9.05;8.35;;;24.70;59.20;;;;;;5033190;28;20207;-89
2021/06/18 04:00:41;;;;;;;8.10;7.45;;;24.70;59.50;;;;;;5053511;28;20168;-89
2021/06/18 04:03:08;;;;;;;8.13;7.32;;;24.70;59.60;;;;;;5054613;28;20255;-90
2021/06/18 04:05:37;;;;;;;9.00;8.18;;;24.80;59.00;;;;;;5053627;28;20193;-90
2021/06/18 04:08:03;;;;;;;9.02;8.13;;;24.80;59.00;;;;;;5057820;28;20210;-89
2021/06/18 04:10:30;;;;;;;7.47;6.88;;;24.70;58.90;;;;;;5055512;28;20181;-88
2021/06/18 04:12:57;;;;;;;7.47;6.88;;;24.70;58.40;;;;;;5018837;28;20935;-89
2021/06/18 04:15:23;;;;;;;7.63;6.80;;;24.70;59.00;;;;;;5015876;28;20233;-91
2021/06/18 04:17:50;;;;;;;8.27;7.20;;;24.70;58.40;;;;;;5036510;28;20189;-89
2021/06/18 04:20:19;;;;;;;7.10;6.60;;;24.70;59.40;;;;;;5036902;28;20173;-92
2021/06/18 04:22:46;;;;;;;10.68;6.57;;;24.70;59.20;;;;;;5039582;28;20173;-91
2021/06/18 04:25:12;;;;;;;7.70;7.00;;;24.80;58.60;;;;;;5041434;28;20212;-90
2021/06/18 04:27:38;;;;;;;6.55;6.05;;;24.80;59.30;;;;;;5022232;28;20314;-91
2021/06/18 04:30:07;;;;;;;7.03;6.50;;;24.90;58.30;;;;;;5038816;28;20753;-92
2021/06/18 04:32:32;;;;;;;7.00;6.30;;;25.00;58.00;;;;;;5038470;28;20187;-91
2021/06/18 04:34:58;;;;;;;8.98;6.00;;;24.90;58.80;;;;;;5038330;28;20212;-91
2021/06/18 04:37:24;;;;;;;8.77;6.28;;;25.00;57.70;;;;;;5039453;28;20177;-91
2021/06/18 04:39:50;;;;;;;6.85;6.25;;;25.10;57.70;;;;;;5025504;28;20181;-91
2021/06/18 04:42:15;;;;;;;6.72;6.03;;;25.10;57.90;;;;;;5017421;28;20276;-91
2021/06/18 04:44:41;;;;;;;7.25;6.55;;;25.10;56.90;;;;;;5020735;28;20650;-91
2021/06/18 04:47:07;;;;;;;7.10;6.53;;;25.10;57.50;;;;;;5021537;28;20212;-92
2021/06/18 04:49:33;;;;;;;7.85;6.63;;;25.10;58.30;;;;;;5038509;28;20193;-90
2021/06/18 04:51:59;;;;;;;8.07;6.20;;;25.10;59.40;;;;;;5038345;28;20185;-91
2021/06/18 04:54:24;;;;;;;10.73;6.93;;;25.00;58.10;;;;;;5037673;28;20428;-89
2021/06/18 04:56:50;;;;;;;8.75;6.65;;;25.00;58.30;;;;;;5039587;28;20200;-90
2021/06/18 04:59:19;;;;;;;7.10;6.40;;;25.00;58.60;;;;;;5039052;28;20212;-91
2021/06/18 05:01:45;;;;;;;6.97;6.22;;;25.00;58.20;;;;;;5021736;28;20177;-90
2021/06/18 05:04:11;;;;;;;8.55;6.70;;;25.00;58.50;;;;;;5040521;28;20169;-91
2021/06/18 05:06:37;;;;;;;7.05;6.35;;;25.00;58.10;;;;;;5039397;28;20201;-89
2021/06/18 05:09:03;;;;;;;6.85;6.25;;;25.10;58.60;;;;;;5039095;28;20181;-90
2021/06/18 05:11:29;;;;;;;8.73;5.82;;;25.20;57.60;;;;;;5037867;28;20181;-89
2021/06/18 05:13:54;;;;;;;6.60;6.00;;;25.20;57.50;;;;;;5022778;28;20596;-90
2021/06/18 05:16:20;;;;;;;8.13;6.00;;;25.40;56.50;;;;;;5003471;28;20724;-90
2021/06/18 05:18:46;;;;;;;9.63;6.57;;;25.60;57.00;;;;;;5017661;28;20185;-89
2021/06/18 05:21:12;;;;;;;17.75;7.25;;;25.80;57.20;;;;;;5034812;28;20226;-90
2021/06/18 05:23:38;;;;;;;6.60;6.05;;;25.90;56.30;;;;;;5035259;28;20192;-88
2021/06/18 05:26:04;;;;;;;6.20;5.75;;;26.10;55.60;;;;;;5018474;28;20216;-90
2021/06/18 05:28:29;;;;;;;5.90;5.40;;;26.10;56.70;;;;;;5036172;28;20659;-91
2021/06/18 05:30:55;;;;;;;16.50;7.38;;;26.10;55.70;;;;;;5035659;28;20693;-92
2021/06/18 05:33:21;;;;;;;6.35;5.85;;;26.20;55.30;;;;;;4992720;28;20649;-92
2021/06/18 05:35:46;;;;;;;6.30;5.55;;;26.40;55.20;;;;;;5025435;28;20569;-91
2021/06/18 05:38:12;;;;;;;6.53;6.03;;;26.50;54.70;;;;;;5029417;28;20177;-90
2021/06/18 05:40:41;;;;;;;6.15;5.55;;;26.60;56.00;;;;;;5034079;28;20256;-91
2021/06/18 05:43:08;;;;;;;8.68;5.65;;;26.60;55.30;;;;;;5035679;28;20534;-90
2021/06/18 05:45:35;;;;;;;6.05;5.50;;;26.70;54.70;;;;;;5035969;28;20753;-90
2021/06/18 05:48:04;;;;;;;5.82;5.13;;;26.80;53.90;;;;;;5034894;28;20227;-90
2021/06/18 05:50:30;;;;;;;10.35;6.00;;;26.80;53.90;;;;;;5034595;28;20185;-92
2021/06/18 05:52:56;;;;;;;11.43;6.13;;;26.80;53.00;;;;;;5034330;28;20320;-90
2021/06/18 05:55:22;;;;;;;8.02;5.70;;;26.80;54.20;;;;;;5037580;28;20714;-89
2021/06/18 05:57:51;;;;;;;8.60;5.78;;;26.80;54.90;;;;;;5021860;28;20181;-90
2021/06/18 06:00:17;;;;;;;8.20;5.38;;;26.80;54.00;;;;;;5021198;28;20184;-89
2021/06/18 06:02:43;;;;;;;8.52;6.07;;;26.70;55.50;;;;;;5022230;28;20541;-90
2021/06/18 06:05:10;;;;;;;7.03;5.72;;;26.80;55.30;;;;;;5052268;28;20181;-90
2021/06/18 06:07:36;;;;;;;5.75;5.25;;;27.10;54.80;;;;;;5040737;28;20646;-90
2021/06/18 06:10:02;;;;;;;11.88;5.80;;;27.20;53.60;;;;;;5018927;28;20264;-89
2021/06/18 06:12:28;;;;;;;11.27;6.07;;;27.20;55.20;;;;;;5018441;28;20200;-89
2021/06/18 06:14:54;;;;;;;6.07;5.03;;;27.30;54.50;;;;;;5005465;28;20209;-91
2021/06/18 06:17:19;;;;;;;9.25;5.35;;;27.30;54.10;;;;;;5035678;28;20189;-91
2021/06/18 06:19:45;;;;;;;6.18;5.18;;;27.30;53.10;;;;;;5036037;28;20181;-88
2021/06/18 06:22:11;;;;;;;6.05;5.53;;;27.40;53.10;;;;;;5037442;28;20177;-89
2021/06/18 06:24:37;;;;;;;5.63;5.20;;;27.50;51.80;;;;;;5040844;28;20249;-89
2021/06/18 06:27:03;;;;;;;5.85;5.25;;;27.30;51.40;;;;;;5042411;28;20204;-88
2021/06/18 06:29:29;;;;;;;7.45;5.10;;;27.30;51.60;;;;;;5045084;28;20189;-91
2021/06/18 06:31:56;;;;;;;5.13;4.63;;;27.50;51.30;;;;;;5050689;28;20264;-88
2021/06/18 06:34:21;;;;;;;5.63;5.05;;;27.70;50.80;;;;;;5051463;28;20195;-90
2021/06/18 06:36:47;;;;;;;9.27;5.78;;;27.70;51.10;;;;;;5039256;28;20212;-89
2021/06/18 06:39:13;;;;;;;10.82;5.18;;;27.70;50.20;;;;;;5016890;28;20264;-89
2021/06/18 06:41:39;;;;;;;5.50;4.72;;;27.90;49.70;;;;;;5022559;28;20185;-89
2021/06/18 06:44:05;;;;;;;5.82;5.30;;;27.80;50.70;;;;;;5021784;28;20188;-89
2021/06/18 06:46:31;;;;;;;5.80;5.30;;;27.70;50.70;;;;;;5037631;28;20201;-88
2021/06/18 06:48:59;;;;;;;7.43;5.10;;;27.60;50.80;;;;;;5042970;28;20189;-90
2021/06/18 06:51:25;;;;;;;8.15;5.30;;;27.90;49.90;;;;;;5041562;28;20843;-88
2021/06/18 06:53:51;;;;;;;5.80;5.30;;;28.00;50.70;;;;;;5041100;28;20177;-88
2021/06/18 06:56:16;;;;;;;5.78;4.97;;;28.00;50.30;;;;;;5039598;28;20224;-89
2021/06/18 06:58:42;;;;;;;6.03;5.43;;;28.00;50.00;;;;;;5039354;28;20206;-88
2021/06/18 07:01:11;;;;;;;6.07;5.57;;;28.20;49.50;;;;;;5018495;28;20738;-89
2021/06/18 07:03:37;;;;;;;6.18;5.28;;;28.20;50.20;;;;;;5044847;28;20181;-89
2021/06/18 07:06:03;;;;;;;5.22;4.82;;;28.20;49.20;;;;;;5040973;28;20219;-90
2021/06/18 07:08:28;;;;;;;5.85;5.25;;;28.20;49.70;;;;;;5026023;28;20212;-90
2021/06/18 07:10:54;;;;;;;8.60;5.60;;;28.30;50.00;;;;;;5039899;28;20185;-90
2021/06/18 07:13:21;;;;;;;6.30;5.78;;;28.40;49.40;;;;;;5039552;28;20207;-88
2021/06/18 07:15:47;;;;;;;5.80;5.25;;;28.50;48.70;;;;;;5039528;28;20727;-89
2021/06/18 07:18:13;;;;;;;5.88;5.07;;;28.60;48.90;;;;;;5037649;28;20714;-89
2021/06/18 07:20:39;;;;;;;6.03;5.45;;;28.80;47.50;;;;;;5036947;28;20193;-89
2021/06/18 07:23:09;;;;;;;7.70;5.55;;;28.90;48.10;;;;;;5038613;28;20185;-89
2021/06/18 07:25:36;;;;;;;5.93;5.43;;;29.00;49.40;;;;;;5038865;28;20243;-89
2021/06/18 07:28:03;;;;;;;6.47;5.68;;;29.20;49.00;;;;;;5012671;28;20208;-89
2021/06/18 07:30:29;;;;;;;6.15;5.65;;;29.40;48.10;;;;;;5037417;28;20276;-88
2021/06/18 07:32:55;;;;;;;6.50;5.90;;;29.50;47.40;;;;;;5031626;28;20600;-89
2021/06/18 07:35:21;;;;;;;6.60;6.07;;;29.70;45.90;;;;;;5038923;28;20725;-89
2021/06/18 07:37:47;;;;;;;7.70;6.60;;;29.70;45.90;;;;;;5036818;28;20177;-89
2021/06/18 07:40:15;;;;;;;8.18;6.22;;;29.70;45.40;;;;;;5021953;28;20185;-89
2021/06/18 07:42:42;;;;;;;7.38;6.55;;;29.70;46.30;;;;;;5039173;28;20193;-89
2021/06/18 07:45:08;;;;;;;7.22;6.55;;;29.80;45.30;;;;;;5034356;28;20229;-89
2021/06/18 07:47:39;;;;;;;7.13;6.43;;;30.00;45.80;;;;;;5025931;28;20216;-89
2021/06/18 07:50:08;;;;;;;8.38;7.32;;;30.10;44.60;;;;;;5047211;28;20240;-89
2021/06/18 07:52:34;;;;;;;10.73;6.63;;;30.20;46.20;;;;;;5024697;28;20261;-90
2021/06/18 07:55:01;;;;;;;6.95;6.30;;;30.10;45.40;;;;;;5042332;28;20228;-88
2021/06/18 07:57:27;;;;;;;7.15;6.45;;;30.00;45.00;;;;;;5045087;28;20196;-89
2021/06/18 07:59:53;;;;;;;7.10;6.47;;;29.80;46.80;;;;;;5041423;28;20208;-89
2021/06/18 08:04:52;;;;;;;7.65;6.95;;;29.80;48.20;;;;;;5052029;28;20223;-89
2021/06/18 08:07:19;;;;;;;7.43;6.80;;;29.80;49.20;;;;;;5066202;28;20208;-89
2021/06/18 08:09:44;;;;;;;6.78;6.18;;;29.70;49.80;;;;;;5036419;28;20197;-89
2021/06/18 08:12:10;;;;;;;8.38;7.00;;;29.70;50.60;;;;;;5065671;28;20185;-89
2021/06/18 08:14:36;;;;;;;7.32;6.15;;;29.60;51.80;;;;;;5017647;28;20265;-89
2021/06/18 08:17:02;;;;;;;7.70;6.40;;;29.70;51.50;;;;;;5052324;28;20330;-88
2021/06/18 08:19:28;;;;;;;9.52;7.20;;;29.90;51.20;;;;;;5065328;28;20204;-87
2021/06/18 08:21:53;;;;;;;10.63;6.45;;;30.10;50.30;;;;;;5082370;28;20197;-88
2021/06/18 08:24:19;;;;;;;10.80;6.70;;;30.20;51.30;;;;;;5045852;28;20703;-87
2021/06/18 08:26:45;;;;;;;8.07;7.32;;;30.40;49.50;;;;;;5066532;28;20169;-88
2021/06/18 08:29:10;;;;;;;8.90;7.10;;;30.60;47.20;;;;;;5056676;28;20204;-88
2021/06/18 08:31:36;;;;;;;9.65;7.70;;;30.80;47.80;;;;;;5060673;28;20218;-88
2021/06/18 08:34:02;;;;;;;8.00;6.40;;;30.90;46.60;;;;;;5061568;28;20196;-87
2021/06/18 08:36:28;;;;;;;8.80;7.20;;;30.90;46.50;;;;;;5057183;28;20184;-88
2021/06/18 08:38:53;;;;;;;7.60;6.72;;;31.00;44.60;;;;;;5053238;28;20246;-88
2021/06/18 08:41:19;;;;;;;10.10;7.90;;;31.10;44.70;;;;;;5057022;28;20199;-90
2021/06/18 08:43:46;;;;;;;10.82;7.57;;;31.20;43.50;;;;;;5053355;28;20204;-89
2021/06/18 08:46:12;;;;;;;8.18;7.38;;;31.20;43.10;;;;;;5045286;28;20196;-88
2021/06/18 08:48:38;;;;;;;8.93;8.07;;;31.40;45.00;;;;;;5052382;28;20837;-88
2021/06/18 08:51:04;;;;;;;9.15;7.15;;;31.60;45.80;;;;;;5033022;28;20197;-88
2021/06/18 08:53:34;;;;;;;8.30;7.47;;;31.70;43.70;;;;;;5065943;28;20211;-89
2021/06/18 08:56:01;;;;;;;9.35;7.30;;;31.80;44.80;;;;;;5042063;28;20204;-89
2021/06/18 08:58:26;;;;;;;10.10;7.78;;;31.80;44.80;;;;;;5046126;28;20185;-88
2021/06/18 09:00:52;;;;;;;8.05;7.22;;;32.00;43.80;;;;;;5042260;28;20555;-88
2021/06/18 09:03:36;;;;;;;8.68;7.45;;;32.00;43.70;;;;;;5059845;28;20278;-89
2021/06/18 09:06:23;;;;;;;9.00;7.80;;;32.40;42.00;;;;;;5063642;28;20209;-88
2021/06/18 09:09:07;;;;;;;8.70;7.90;;;32.60;41.10;;;;;;5022970;28;20199;-88
2021/06/18 09:11:43;;;;;;;8.48;7.63;;;32.60;41.20;;;;;;5056230;28;20198;-89
2021/06/18 09:14:25;;;;;;;8.57;7.85;;;32.50;42.10;;;;;;5049536;28;20235;-88
2021/06/18 09:17:11;;;;;;;9.20;8.35;;;32.60;42.30;;;;;;5050111;28;20188;-88
2021/06/18 09:20:00;;;;;;;9.55;8.65;;;32.40;42.30;;;;;;5051740;28;20180;-88
2021/06/18 09:22:43;;;;;;;9.40;7.90;;;32.40;42.10;;;;;;5038328;28;20660;-88
2021/06/18 09:25:13;;;;;;;8.80;7.97;;;32.40;42.70;;;;;;5037714;28;20188;-88
2021/06/18 09:27:44;;;;;;;9.20;8.35;;;32.50;41.40;;;;;;5052532;28;20192;-88
2021/06/18 09:30:30;;;;;;;9.55;8.65;;;32.90;41.90;;;;;;5048136;28;20191;-88
2021/06/18 09:32:58;;;;;;;8.90;7.90;;;32.80;41.90;;;;;;5043868;28;20202;-88
2021/06/18 09:35:24;;;;;;;9.15;8.25;;;32.80;41.20;;;;;;5050704;28;20215;-88
2021/06/18 09:38:02;;;;;;;8.90;8.10;;;32.80;41.40;;;;;;5065985;28;20201;-88
2021/06/18 09:40:29;;;;;;;8.32;7.63;;;32.50;41.70;;;;;;5055419;28;20191;-88
2021/06/18 09:42:58;;;;;;;9.32;8.40;;;32.20;42.70;;;;;;5041250;28;20211;-87
2021/06/18 09:45:32;;;;;;;11.10;8.90;;;32.20;43.60;;;;;;5058537;28;20192;-87
2021/06/18 09:48:09;;;;;;;8.90;8.18;;;32.30;42.80;;;;;;5050127;28;20196;-88
2021/06/18 09:50:38;;;;;;;9.15;8.30;;;32.40;42.30;;;;;;5050693;28;20191;-88
2021/06/18 09:53:17;;;;;;;11.82;9.05;;;32.40;42.90;;;;;;5053822;28;20208;-88
2021/06/18 09:55:46;;;;;;;9.95;9.02;;;32.50;42.30;;;;;;5059911;28;20247;-88
2021/06/18 09:58:13;;;;;;;11.55;10.52;;;32.50;45.30;;;;;;5035043;28;20215;-88
2021/06/18 10:00:39;;;;;;;12.00;9.63;;;32.30;46.40;;;;;;5028733;28;20242;-88
2021/06/18 10:03:10;;;;;;;14.15;9.88;;;32.00;46.30;;;;;;5048892;28;20221;-88
2021/06/18 10:05:37;;;;;;;10.50;9.35;;;32.20;47.30;;;;;;5053533;28;20192;-88
2021/06/18 10:08:03;;;;;;;10.27;9.38;;;32.20;47.10;;;;;;5046331;28;20204;-88
2021/06/18 10:10:35;;;;;;;9.82;8.98;;;31.90;48.40;;;;;;5033609;28;20260;-88
2021/06/18 10:13:03;;;;;;;10.07;9.27;;;31.90;47.70;;;;;;5032031;28;20215;-88
2021/06/18 10:15:31;;;;;;;11.00;10.30;;;32.10;48.60;;;;;;5048414;28;20208;-88
2021/06/18 10:17:58;;;;;;;10.80;9.98;;;32.20;48.40;;;;;;5047941;28;20180;-88
2021/06/18 10:20:33;;;;;;;11.95;10.38;;;32.30;47.10;;;;;;5046685;28;20238;-88
2021/06/18 10:23:04;;;;;;;11.32;10.25;;;32.40;47.10;;;;;;5048552;28;20358;-88
2021/06/18 10:25:58;;;;;;;11.07;10.38;;;32.40;47.10;;;;;;5049135;28;20191;-88
2021/06/18 10:28:34;;;;;;;11.63;10.32;;;32.60;46.30;;;;;;5044007;28;20208;-89
2021/06/18 10:31:05;;;;;;;11.10;10.20;;;32.80;45.60;;;;;;5050426;28;20192;-89
2021/06/18 10:33:36;;;;;;;11.77;10.52;;;32.80;45.30;;;;;;5047608;28;20212;-88
2021/06/18 10:36:28;;;;;;;12.85;11.30;;;33.00;45.70;;;;;;5050045;28;20575;-88
2021/06/18 10:39:14;;;;;;;11.23;10.20;;;33.30;46.50;;;;;;5048913;28;20172;-89
2021/06/18 10:42:00;;;;;;;12.05;10.65;;;33.30;45.20;;;;;;5051876;28;20297;-88
2021/06/18 10:44:38;;;;;;;11.85;10.88;;;33.50;45.60;;;;;;5049890;28;20284;-88
2021/06/18 10:47:05;;;;;;;12.13;11.20;;;33.50;44.10;;;;;;5049459;28;20192;-89
2021/06/18 10:49:38;;;;;;;11.25;10.13;;;33.50;44.10;;;;;;5047676;28;20727;-88
2021/06/18 10:52:25;;;;;;;12.20;10.98;;;33.30;45.30;;;;;;5051264;28;20638;-88
2021/06/18 10:54:53;;;;;;;11.93;10.98;;;33.50;44.70;;;;;;5047944;28;20206;-88
2021/06/18 10:57:24;;;;;;;13.05;11.73;;;33.30;43.80;;;;;;5049511;28;20201;-88
2021/06/18 10:59:52;;;;;;;12.60;11.43;;;33.50;44.90;;;;;;5023701;28;20667;-89
2021/06/18 11:02:23;;;;;;;12.88;11.65;;;33.70;43.80;;;;;;5050536;28;20188;-89
2021/06/18 11:04:56;;;;;;;11.40;10.60;;;33.90;44.30;;;;;;5050401;28;20204;-89
2021/06/18 11:07:36;;;;;;;11.93;11.13;;;34.30;44.10;;;;;;5055472;28;20227;-87
2021/06/18 11:10:08;;;;;;;12.60;11.60;;;34.60;41.80;;;;;;5055403;28;20185;-87
2021/06/18 11:12:38;;;;;;;12.55;11.55;;;34.50;42.90;;;;;;5048329;28;20220;-89
2021/06/18 11:15:08;;;;;;;12.45;11.55;;;34.80;42.00;;;;;;5049151;28;20291;-89
2021/06/18 11:17:37;;;;;;;13.27;12.00;;;35.00;42.80;;;;;;5046944;28;20205;-88
2021/06/18 11:20:14;;;;;;;13.63;11.60;;;35.10;42.20;;;;;;5051573;28;20512;-88
2021/06/18 11:22:49;;;;;;;13.18;12.07;;;35.00;41.20;;;;;;5052902;28;20211;-88
2021/06/18 11:25:37;;;;;;;13.88;11.88;;;34.80;40.30;;;;;;5051354;28;20176;-89
2021/06/18 11:28:21;;;;;;;13.30;11.90;;;34.70;42.60;;;;;;5052427;28;20184;-89
2021/06/18 11:30:56;;;;;;;13.63;12.15;;;34.70;40.80;;;;;;5045743;28;20197;-89
2021/06/18 11:33:40;;;;;;;12.88;11.63;;;34.80;41.80;;;;;;5047541;28;20212;-89
2021/06/18 11:36:08;;;;;;;13.43;12.32;;;35.30;40.20;;;;;;5049397;28;20221;-89
2021/06/18 11:38:34;;;;;;;13.65;11.95;;;35.60;39.40;;;;;;5036307;28;20172;-88
2021/06/18 11:41:04;;;;;;;13.52;12.50;;;35.60;39.90;;;;;;5056439;28;20661;-89
2021/06/18 11:43:31;;;;;;;13.52;12.32;;;35.50;38.80;;;;;;5055288;28;20205;-89
2021/06/18 11:45:57;;;;;;;13.18;12.27;;;35.80;40.30;;;;;;5053771;28;20887;-89
2021/06/18 11:48:23;;;;;;;13.45;12.18;;;35.50;40.40;;;;;;5060136;28;20183;-89
2021/06/18 11:50:50;;;;;;;13.63;12.57;;;35.30;40.80;;;;;;5052792;28;20183;-89
2021/06/18 11:53:17;;;;;;;13.15;12.25;;;35.70;39.70;;;;;;5021905;28;20215;-89
2021/06/18 11:55:44;;;;;;;13.55;12.43;;;36.10;38.80;;;;;;5054435;28;20199;-89
2021/06/18 11:58:36;;;;;;;14.93;13.43;;;36.50;38.50;;;;;;5031163;28;20247;-88
2021/06/18 12:01:11;;;;;;;13.38;12.20;;;36.50;37.80;;;;;;5048799;28;20180;-89
2021/06/18 12:03:37;;;;;;;13.77;12.63;;;36.40;39.20;;;;;;5047971;28;20226;-89
2021/06/18 12:06:29;;;;;;;14.23;12.85;;;36.20;39.90;;;;;;5053108;28;20184;-89
2021/06/18 12:09:05;;;;;;;13.45;12.32;;;36.50;39.70;;;;;;5045378;28;20198;-89
2021/06/18 12:11:33;;;;;;;12.82;11.82;;;36.80;38.50;;;;;;5034239;28;20187;-89
2021/06/18 12:13:59;;;;;;;14.77;13.48;;;36.70;39.90;;;;;;5044445;28;20212;-89
2021/06/18 12:16:36;;;;;;;13.70;12.48;;;37.30;38.40;;;;;;5056376;28;20578;-89
2021/06/18 12:19:21;;;;;;;13.88;12.68;;;37.60;37.50;;;;;;5046878;28;20179;-88
2021/06/18 12:21:59;;;;;;;15.40;12.45;;;37.30;37.20;;;;;;5030108;28;20192;-89
2021/06/18 12:24:35;;;;;;;15.65;12.27;;;37.50;38.10;;;;;;5050686;28;20199;-88
2021/06/18 12:27:03;;;;;;;16.02;13.32;;;37.60;37.80;;;;;;5050193;28;20187;-89
2021/06/18 12:29:29;;;;;;;37.85;17.85;;;37.70;37.80;;;;;;5049007;28;20179;-89
2021/06/18 12:31:57;;;;;;;25.83;14.65;;;37.90;36.90;;;;;;5054409;28;20594;-89
2021/06/18 12:34:23;;;;;;;14.15;13.02;;;38.10;36.80;;;;;;5049865;28;20227;-89
2021/06/18 12:37:03;;;;;;;13.27;12.30;;;38.30;37.50;;;;;;5033724;28;20184;-89
2021/06/18 12:39:29;;;;;;;14.05;12.75;;;38.60;36.00;;;;;;5057035;28;20179;-88
2021/06/18 12:41:55;;;;;;;13.98;12.88;;;38.70;36.20;;;;;;5056502;28;20187;-89
2021/06/18 12:44:33;;;;;;;14.20;13.10;;;38.80;36.50;;;;;;5039049;28;20314;-88
2021/06/18 12:47:00;;;;;;;13.65;12.68;;;38.70;35.20;;;;;;5040420;28;20188;-88
2021/06/18 12:49:29;;;;;;;13.85;12.65;;;38.80;35.60;;;;;;5041034;28;20184;-89